createdAt,value
2019-05-20T00:01:41.411Z,12.31
2019-05-20T00:04:09.716Z,12.32
2019-05-20T00:06:37.997Z,12.26
2019-05-20T00:09:06.473Z,12.27
2019-05-20T00:11:34.972Z,12.28
2019-05-20T00:14:03.256Z,12.25
2019-05-20T00:16:31.541Z,12.28
2019-05-20T00:18:59.870Z,12.27
2019-05-20T00:21:28.180Z,12.19
2019-05-20T00:23:56.465Z,12.19
2019-05-20T00:26:25.793Z,12.24
2019-05-20T00:28:54.088Z,12.20
2019-05-20T00:31:22.450Z,12.20
2019-05-20T00:33:50.749Z,12.06
2019-05-20T00:36:19.056Z,12.13
2019-05-20T00:38:49.017Z,12.16
2019-05-20T00:41:17.333Z,12.18
2019-05-20T00:43:45.630Z,12.15
2019-05-20T00:46:13.913Z,12.15
2019-05-20T00:48:42.209Z,12.12
2019-05-20T00:51:10.504Z,12.19
2019-05-20T00:53:39.649Z,12.16
2019-05-20T00:56:07.946Z,12.11
2019-05-20T00:58:36.294Z,12.10
2019-05-20T01:01:04.853Z,12.20
2019-05-20T01:03:33.132Z,12.14
2019-05-20T01:06:01.419Z,12.12
2019-05-20T01:08:29.724Z,12.10
2019-05-20T01:10:58.013Z,12.11
2019-05-20T01:13:26.341Z,12.10
2019-05-20T01:15:54.648Z,12.17
2019-05-20T01:18:22.917Z,12.19
2019-05-20T01:20:52.979Z,12.18
2019-05-20T01:23:21.253Z,12.11
2019-05-20T01:25:49.557Z,12.05
2019-05-20T01:28:17.865Z,12.07
2019-05-20T01:30:46.152Z,12.15
2019-05-20T01:33:14.650Z,12.08
2019-05-20T01:35:42.922Z,12.04
2019-05-20T01:38:11.212Z,12.05
2019-05-20T01:40:39.504Z,12.10
2019-05-20T01:43:07.790Z,12.14
2019-05-20T01:45:36.080Z,12.13
2019-05-20T01:48:04.402Z,12.04
2019-05-20T01:50:32.735Z,11.99
2019-05-20T01:53:01.041Z,12.03
2019-05-20T01:55:29.350Z,12.10
2019-05-20T01:57:57.668Z,12.22
2019-05-20T02:00:26.023Z,12.26
2019-05-20T02:02:54.315Z,12.21
2019-05-20T02:05:22.609Z,12.28
2019-05-20T02:07:50.901Z,12.30
2019-05-20T02:10:19.347Z,12.40
2019-05-20T02:12:47.653Z,12.30
2019-05-20T02:15:29.380Z,12.30
2019-05-20T02:17:57.695Z,12.30
2019-05-20T02:20:25.977Z,12.32
2019-05-20T02:22:55.899Z,12.30
2019-05-20T02:25:24.186Z,12.18
2019-05-20T02:27:52.527Z,12.28
2019-05-20T02:30:20.810Z,12.30
2019-05-20T02:32:49.088Z,12.30
2019-05-20T02:35:17.381Z,12.28
2019-05-20T02:37:45.664Z,12.30
2019-05-20T02:40:14.227Z,12.27
2019-05-20T02:42:42.518Z,12.26
2019-05-20T02:45:10.882Z,12.26
2019-05-20T02:47:39.185Z,12.32
2019-05-20T02:50:07.731Z,12.31
2019-05-20T02:52:36.018Z,12.24
2019-05-20T02:55:06.138Z,12.17
2019-05-20T02:57:34.424Z,12.18
2019-05-20T03:00:03.145Z,12.22
2019-05-20T03:02:31.475Z,12.30
2019-05-20T03:04:59.739Z,12.33
2019-05-20T03:07:28.105Z,12.32
2019-05-20T03:09:56.419Z,12.36
2019-05-20T03:12:24.703Z,12.33
2019-05-20T03:14:52.999Z,12.27
2019-05-20T03:17:21.293Z,12.20
2019-05-20T03:19:49.586Z,12.25
2019-05-20T03:22:17.892Z,12.17
2019-05-20T03:24:46.197Z,12.20
2019-05-20T03:27:14.480Z,12.23
2019-05-20T03:29:42.772Z,12.24
2019-05-20T03:32:11.229Z,12.27
2019-05-20T03:34:47.725Z,12.26
2019-05-20T03:37:09.548Z,12.19
2019-05-20T03:39:37.856Z,12.20
2019-05-20T03:42:06.134Z,12.28
2019-05-20T03:44:34.450Z,12.28
2019-05-20T03:47:02.764Z,12.25
2019-05-20T03:49:31.064Z,12.31
2019-05-20T03:51:59.360Z,12.24
2019-05-20T03:54:27.654Z,12.30
2019-05-20T03:56:55.963Z,12.25
2019-05-20T03:59:24.256Z,12.17
2019-05-20T04:02:25.685Z,12.16
2019-05-20T04:05:02.517Z,12.23
2019-05-20T04:07:23.995Z,12.28
2019-05-20T04:09:52.316Z,12.29
2019-05-20T04:12:20.629Z,12.21
2019-05-20T04:14:48.925Z,12.14
2019-05-20T04:17:17.218Z,12.08
2019-05-20T04:19:45.534Z,12.03
2019-05-20T04:22:17.026Z,12.07
2019-05-20T04:24:45.316Z,12.07
2019-05-20T04:27:13.592Z,12.16
2019-05-20T04:29:41.886Z,12.11
2019-05-20T04:32:10.748Z,12.16
2019-05-20T04:34:39.051Z,12.09
2019-05-20T04:37:07.320Z,12.08
2019-05-20T04:39:35.621Z,12.17
2019-05-20T04:42:07.239Z,12.13
2019-05-20T04:44:35.646Z,12.11
2019-05-20T04:47:03.910Z,12.17
2019-05-20T04:49:32.217Z,12.18
2019-05-20T04:52:00.524Z,12.13
2019-05-20T04:54:28.810Z,12.23
2019-05-20T04:56:57.098Z,12.22
2019-05-20T04:59:25.394Z,12.17
2019-05-20T05:01:53.695Z,12.15
2019-05-20T05:04:21.985Z,12.10
2019-05-20T05:06:50.259Z,12.15
2019-05-20T05:09:18.635Z,12.18
2019-05-20T05:11:46.885Z,12.08
2019-05-20T05:14:16.999Z,12.08
2019-05-20T05:16:46.947Z,12.12
2019-05-20T05:19:15.910Z,12.11
2019-05-20T05:21:44.248Z,12.22
2019-05-20T05:24:12.622Z,12.25
2019-05-20T05:26:42.038Z,12.32
2019-05-20T05:29:11.605Z,12.37
2019-05-20T05:31:39.939Z,12.35
2019-05-20T05:34:08.988Z,12.38
2019-05-20T05:36:37.298Z,12.30
2019-05-20T05:39:06.831Z,12.33
2019-05-20T05:41:35.169Z,12.31
2019-05-20T05:44:03.509Z,12.28
2019-05-20T05:46:31.863Z,12.24
2019-05-20T05:49:00.290Z,12.27
2019-05-20T05:51:28.635Z,12.25
2019-05-20T05:53:56.918Z,12.23
2019-05-20T05:56:25.567Z,12.30
2019-05-20T05:58:54.417Z,12.35
2019-05-20T06:01:22.789Z,12.40
2019-05-20T06:03:52.706Z,12.25
2019-05-20T06:06:21.090Z,12.25
2019-05-20T06:08:49.424Z,12.32
2019-05-20T06:11:17.794Z,12.25
2019-05-20T06:13:46.919Z,12.25
2019-05-20T06:16:15.625Z,12.31
2019-05-20T06:18:43.941Z,12.38
2019-05-20T06:21:12.266Z,12.39
2019-05-20T06:23:42.978Z,12.47
2019-05-20T06:26:11.391Z,12.39
2019-05-20T06:28:39.826Z,12.37
2019-05-20T06:31:08.425Z,12.29
2019-05-20T06:33:36.836Z,12.35
2019-05-20T06:36:05.215Z,12.30
2019-05-20T06:38:35.219Z,12.23
2019-05-20T06:41:04.966Z,12.36
2019-05-20T06:43:33.373Z,12.37
2019-05-20T06:46:02.103Z,12.46
2019-05-20T06:48:30.439Z,12.61
2019-05-20T06:50:58.777Z,12.65
2019-05-20T06:53:28.216Z,12.62
2019-05-20T06:55:56.455Z,12.65
2019-05-20T06:58:24.831Z,12.67
2019-05-20T07:00:53.172Z,12.76
2019-05-20T07:03:21.568Z,12.86
2019-05-20T07:05:49.864Z,12.83
2019-05-20T07:08:18.239Z,12.87
2019-05-20T07:10:48.849Z,13.00
2019-05-20T07:13:17.196Z,13.00
2019-05-20T07:15:45.579Z,13.03
2019-05-20T07:18:13.925Z,13.10
2019-05-20T07:20:42.339Z,13.13
2019-05-20T07:23:11.519Z,13.03
2019-05-20T07:25:39.889Z,13.19
2019-05-20T07:28:08.203Z,13.16
2019-05-20T07:30:37.895Z,13.25
2019-05-20T07:33:06.200Z,13.34
2019-05-20T07:35:34.694Z,13.34
2019-05-20T07:38:03.053Z,13.41
2019-05-20T07:40:32.375Z,13.58
2019-05-20T07:43:02.146Z,13.66
2019-05-20T07:45:34.324Z,13.66
2019-05-20T07:48:03.235Z,13.74
2019-05-20T07:50:31.750Z,13.81
2019-05-20T07:53:00.705Z,13.73
2019-05-20T07:55:30.885Z,13.60
2019-05-20T07:58:04.605Z,13.76
2019-05-20T08:00:32.966Z,13.78
2019-05-20T08:03:01.283Z,13.85
2019-05-20T08:05:31.198Z,14.10
2019-05-20T08:07:59.724Z,14.10
2019-05-20T08:10:28.073Z,14.16
2019-05-20T08:12:56.466Z,14.17
2019-05-20T08:15:24.779Z,14.23
2019-05-20T08:17:53.858Z,14.14
2019-05-20T08:20:22.628Z,14.24
2019-05-20T08:22:50.993Z,14.21
2019-05-20T08:25:20.208Z,14.16
2019-05-20T08:27:50.998Z,14.06
2019-05-20T08:30:23.753Z,14.14
2019-05-20T08:32:52.104Z,14.10
2019-05-20T08:35:23.664Z,14.17
2019-05-20T08:37:50.991Z,14.24
2019-05-20T08:40:19.337Z,14.32
2019-05-20T08:42:47.641Z,14.22
2019-05-20T08:45:16.087Z,14.21
2019-05-20T08:47:44.415Z,14.28
2019-05-20T08:50:16.231Z,14.43
2019-05-20T08:52:43.184Z,14.42
2019-05-20T08:55:13.777Z,14.48
2019-05-20T08:57:43.775Z,14.59
2019-05-20T09:00:23.577Z,14.66
2019-05-20T09:02:51.372Z,14.73
2019-05-20T09:05:19.685Z,14.68
2019-05-20T09:08:01.436Z,14.68
2019-05-20T09:10:21.778Z,14.83
2019-05-20T09:12:51.403Z,14.76
2019-05-20T09:15:20.716Z,14.84
2019-05-20T09:17:49.113Z,14.89
2019-05-20T09:20:20.205Z,14.86
2019-05-20T09:22:48.564Z,14.92
2019-05-20T09:25:18.694Z,14.91
2019-05-20T09:27:47.737Z,14.89
2019-05-20T09:30:16.192Z,14.65
2019-05-20T09:32:44.555Z,14.70
2019-05-20T09:35:13.398Z,14.75
2019-05-20T09:37:41.743Z,14.86
2019-05-20T09:40:10.756Z,14.83
2019-05-20T09:42:41.041Z,14.89
2019-05-20T09:45:09.710Z,14.88
2019-05-20T09:47:38.418Z,14.87
2019-05-20T09:50:08.671Z,14.81
2019-05-20T09:52:37.877Z,14.82
2019-05-20T09:55:09.001Z,14.89
2019-05-20T09:57:38.102Z,14.77
2019-05-20T10:00:13.793Z,14.88
2019-05-20T10:02:43.132Z,14.86
2019-05-20T10:05:11.648Z,14.93
2019-05-20T10:07:39.991Z,15.02
2019-05-20T10:10:08.787Z,15.07
2019-05-20T10:12:46.188Z,14.75
2019-05-20T10:15:09.215Z,14.77
2019-05-20T10:17:37.495Z,14.77
2019-05-20T10:20:08.018Z,14.91
2019-05-20T10:22:38.924Z,14.92
2019-05-20T10:25:11.145Z,14.88
2019-05-20T10:27:41.779Z,14.90
2019-05-20T10:30:15.118Z,15.07
2019-05-20T10:32:43.541Z,15.10
2019-05-20T10:35:15.448Z,15.03
2019-05-20T10:37:43.852Z,15.17
2019-05-20T10:40:12.386Z,15.21
2019-05-20T10:42:43.185Z,15.16
2019-05-20T10:45:11.782Z,15.21
2019-05-20T10:47:41.379Z,15.31
2019-05-20T10:50:09.892Z,15.21
2019-05-20T10:52:38.191Z,15.21
2019-05-20T10:55:07.992Z,15.20
2019-05-20T10:57:37.379Z,15.03
2019-05-20T11:00:07.285Z,15.12
2019-05-20T11:02:35.577Z,15.16
2019-05-20T11:05:07.177Z,15.23
2019-05-20T11:07:39.627Z,15.23
2019-05-20T11:10:11.593Z,15.15
2019-05-20T11:12:39.873Z,15.21
2019-05-20T11:15:09.139Z,15.30
2019-05-20T11:17:38.617Z,15.37
2019-05-20T11:20:10.442Z,15.53
2019-05-20T11:22:38.713Z,15.67
2019-05-20T11:25:09.608Z,15.81
2019-05-20T11:27:37.881Z,15.94
2019-05-20T11:30:09.980Z,15.84
2019-05-20T11:32:39.581Z,15.73
2019-05-20T11:35:09.402Z,15.52
2019-05-20T11:37:37.690Z,15.57
2019-05-20T11:40:09.635Z,15.74
2019-05-20T11:42:40.051Z,15.97
2019-05-20T11:45:09.355Z,16.10
2019-05-20T11:47:37.638Z,16.08
2019-05-20T11:50:09.281Z,16.19
2019-05-20T11:52:41.203Z,16.22
2019-05-20T11:55:13.114Z,16.25
2019-05-20T11:57:41.385Z,16.27
2019-05-20T12:00:14.656Z,16.32
2019-05-20T12:02:44.338Z,16.28
2019-05-20T12:05:14.647Z,16.40
2019-05-20T12:07:45.972Z,16.38
2019-05-20T12:10:15.780Z,16.65
2019-05-20T12:12:46.276Z,16.85
2019-05-20T12:15:15.409Z,16.92
2019-05-20T12:17:44.364Z,16.88
2019-05-20T12:20:12.963Z,16.84
2019-05-20T12:22:52.809Z,17.02
2019-05-20T12:25:21.087Z,17.15
2019-05-20T12:27:49.425Z,17.04
2019-05-20T12:30:17.707Z,17.12
2019-05-20T12:32:46.228Z,17.18
2019-05-20T12:35:14.708Z,17.20
2019-05-20T12:37:45.690Z,17.05
2019-05-20T12:40:13.286Z,17.03
2019-05-20T12:42:44.324Z,17.18
2019-05-20T12:45:15.417Z,17.25
2019-05-20T12:47:43.716Z,17.44
2019-05-20T12:50:14.778Z,17.44
2019-05-20T12:52:46.176Z,17.55
2019-05-20T12:55:14.546Z,17.65
2019-05-20T12:57:45.303Z,17.71
2019-05-20T13:00:17.122Z,17.60
2019-05-20T13:02:45.541Z,17.58
2019-05-20T13:05:14.603Z,17.70
2019-05-20T13:07:43.541Z,17.69
2019-05-20T13:10:29.240Z,17.76
2019-05-20T13:12:44.264Z,17.94
2019-05-20T13:15:14.336Z,18.20
2019-05-20T13:17:45.416Z,18.20
2019-05-20T13:20:19.103Z,18.09
2019-05-20T13:22:47.314Z,18.22
2019-05-20T13:25:15.673Z,18.38
2019-05-20T13:27:45.620Z,18.54
2019-05-20T13:30:14.284Z,18.74
2019-05-20T13:32:42.786Z,18.90
2019-05-20T13:35:11.383Z,19.03
2019-05-20T13:37:40.926Z,19.01
2019-05-20T13:40:12.131Z,19.05
2019-05-20T13:42:40.451Z,19.21
2019-05-20T13:45:11.335Z,19.29
2019-05-20T13:47:39.623Z,19.24
2019-05-20T13:50:08.985Z,19.31
2019-05-20T13:52:39.186Z,19.36
2019-05-20T13:55:10.005Z,19.68
2019-05-20T13:57:40.629Z,19.84
2019-05-20T14:00:09.577Z,19.70
2019-05-20T14:02:38.044Z,19.64
2019-05-20T14:05:06.561Z,19.53
2019-05-20T14:07:38.219Z,19.76
2019-05-20T14:10:08.304Z,19.90
2019-05-20T14:12:36.583Z,19.71
2019-05-20T14:15:06.275Z,19.79
2019-05-20T14:17:37.211Z,19.91
2019-05-20T14:20:06.743Z,19.70
2019-05-20T14:22:36.648Z,19.83
2019-05-20T14:25:06.620Z,20.01
2019-05-20T14:27:34.890Z,20.06
2019-05-20T14:30:05.183Z,19.97
2019-05-20T14:32:33.541Z,19.52
2019-05-20T14:35:14.131Z,19.77
2019-05-20T14:37:42.424Z,19.75
2019-05-20T14:40:10.859Z,19.95
2019-05-20T14:42:39.617Z,19.89
2019-05-20T14:45:08.076Z,19.65
2019-05-20T14:47:38.845Z,19.77
2019-05-20T14:50:07.962Z,19.73
2019-05-20T14:52:40.010Z,19.56
2019-05-20T14:55:08.571Z,19.62
2019-05-20T14:57:36.936Z,19.62
2019-05-20T15:00:12.984Z,19.39
2019-05-20T15:02:41.278Z,19.39
2019-05-20T15:05:15.062Z,19.33
2019-05-20T15:07:43.796Z,19.28
2019-05-20T15:10:15.531Z,19.16
2019-05-20T15:12:44.643Z,19.20
2019-05-20T15:15:14.900Z,19.22
2019-05-20T15:17:47.459Z,19.26
2019-05-20T15:20:16.906Z,19.14
2019-05-20T15:22:46.134Z,19.29
2019-05-20T15:25:15.825Z,19.34
2019-05-20T15:27:45.955Z,19.51
2019-05-20T15:30:14.613Z,19.50
2019-05-20T15:32:42.957Z,19.67
2019-05-20T15:35:12.767Z,19.63
2019-05-20T15:37:41.073Z,19.73
2019-05-20T15:40:11.112Z,19.77
2019-05-20T15:42:39.435Z,19.79
2019-05-20T15:45:11.910Z,19.87
2019-05-20T15:47:42.144Z,19.68
2019-05-20T15:50:12.357Z,19.84
2019-05-20T15:52:40.668Z,19.85
2019-05-20T15:55:09.294Z,19.99
2019-05-20T15:57:38.126Z,20.03
2019-05-20T16:00:08.360Z,20.16
2019-05-20T16:02:39.933Z,20.18
2019-05-20T16:05:08.512Z,20.28
2019-05-20T16:07:36.879Z,20.18
2019-05-20T16:10:09.339Z,20.17
2019-05-20T16:12:39.269Z,20.19
2019-05-20T16:15:10.298Z,20.14
2019-05-20T16:17:47.995Z,20.15
2019-05-20T16:20:15.928Z,20.25
2019-05-20T16:22:44.395Z,20.28
2019-05-20T16:25:17.495Z,20.23
2019-05-20T16:27:45.813Z,20.16
2019-05-20T16:30:14.748Z,20.10
2019-05-20T16:32:43.619Z,20.20
2019-05-20T16:35:11.935Z,20.21
2019-05-20T16:37:42.706Z,20.20
2019-05-20T16:40:11.508Z,20.17
2019-05-20T16:42:43.269Z,20.15
2019-05-20T16:45:12.434Z,20.20
2019-05-20T16:47:40.934Z,20.09
2019-05-20T16:50:10.402Z,19.94
2019-05-20T16:52:38.763Z,19.98
2019-05-20T16:55:08.043Z,19.90
2019-05-20T16:57:37.931Z,19.95
2019-05-20T17:00:27.401Z,19.97
2019-05-20T17:02:37.877Z,20.09
2019-05-20T17:05:06.726Z,19.97
2019-05-20T17:07:35.011Z,20.05
2019-05-20T17:10:05.168Z,20.01
2019-05-20T17:12:33.471Z,20.16
2019-05-20T17:15:02.264Z,20.05
2019-05-20T17:17:30.554Z,20.03
2019-05-20T17:20:01.779Z,20.08
2019-05-20T17:22:31.043Z,20.00
2019-05-20T17:25:02.004Z,20.07
2019-05-20T17:27:31.604Z,20.10
2019-05-20T17:30:03.575Z,20.01
2019-05-20T17:32:32.333Z,20.05
2019-05-20T17:35:00.731Z,19.89
2019-05-20T17:37:29.130Z,19.90
2019-05-20T17:39:57.434Z,19.92
2019-05-20T17:42:25.811Z,20.02
2019-05-20T17:44:54.582Z,19.92
2019-05-20T17:47:22.866Z,19.91
2019-05-20T17:49:51.149Z,19.79
2019-05-20T17:52:20.376Z,19.87
2019-05-20T17:54:48.733Z,19.83
2019-05-20T17:57:18.699Z,19.98
2019-05-20T17:59:46.991Z,19.89
2019-05-20T18:02:15.316Z,19.82
2019-05-20T18:04:43.910Z,19.72
2019-05-20T18:07:12.229Z,19.80
2019-05-20T18:09:42.167Z,19.72
2019-05-20T18:12:10.530Z,19.70
2019-05-20T18:14:38.989Z,19.71
2019-05-20T18:17:07.291Z,19.76
2019-05-20T18:19:37.276Z,19.51
2019-05-20T18:22:05.580Z,19.46
2019-05-20T18:24:33.956Z,19.42
2019-05-20T18:27:02.283Z,19.35
2019-05-20T18:29:34.035Z,19.23
2019-05-20T18:32:02.398Z,19.21
2019-05-20T18:34:30.721Z,19.12
2019-05-20T18:36:59.003Z,19.10
2019-05-20T18:39:27.274Z,18.98
2019-05-20T18:41:56.295Z,18.89
2019-05-20T18:44:25.656Z,18.83
2019-05-20T18:46:53.998Z,18.78
2019-05-20T18:49:22.334Z,18.67
2019-05-20T18:51:50.655Z,18.62
2019-05-20T18:54:23.328Z,18.53
2019-05-20T18:56:53.686Z,18.51
2019-05-20T18:59:21.998Z,18.45
2019-05-20T19:02:04.682Z,18.42
2019-05-20T19:04:21.038Z,18.48
2019-05-20T19:06:49.421Z,18.49
2019-05-20T19:09:18.166Z,18.45
2019-05-20T19:11:48.123Z,18.41
2019-05-20T19:14:16.419Z,18.40
2019-05-20T19:16:44.804Z,18.37
2019-05-20T19:19:13.202Z,18.24
2019-05-20T19:21:41.507Z,18.21
2019-05-20T19:24:09.862Z,18.21
2019-05-20T19:26:38.208Z,18.08
2019-05-20T19:29:06.552Z,18.00
2019-05-20T19:31:36.028Z,17.75
2019-05-20T19:34:05.396Z,17.72
2019-05-20T19:36:33.757Z,17.59
2019-05-20T19:39:02.820Z,17.48
2019-05-20T19:41:31.128Z,17.42
2019-05-20T19:43:59.459Z,17.38
2019-05-20T19:46:27.819Z,17.28
2019-05-20T19:48:56.143Z,17.36
2019-05-20T19:51:25.724Z,17.33
2019-05-20T19:53:56.618Z,17.28
2019-05-20T19:56:24.909Z,17.12
2019-05-20T19:58:53.244Z,17.13
2019-05-20T20:01:21.706Z,17.01
2019-05-20T20:03:52.983Z,17.02
2019-05-20T20:06:25.901Z,16.97
2019-05-20T20:08:54.233Z,16.92
2019-05-20T20:11:22.508Z,16.90
2019-05-20T20:13:50.797Z,16.85
2019-05-20T20:16:19.097Z,16.85
2019-05-20T20:18:47.387Z,16.80
2019-05-20T20:21:16.412Z,16.76
2019-05-20T20:23:44.707Z,16.74
2019-05-20T20:26:13.007Z,16.70
2019-05-20T20:28:41.318Z,16.67
2019-05-20T20:31:11.066Z,16.62
2019-05-20T20:33:39.866Z,16.51
2019-05-20T20:36:08.162Z,16.49
2019-05-20T20:38:36.448Z,16.51
2019-05-20T20:41:04.748Z,16.50
2019-05-20T20:43:33.037Z,16.54
2019-05-20T20:46:01.428Z,16.54
2019-05-20T20:48:29.698Z,16.56
2019-05-20T20:50:57.982Z,16.54
2019-05-20T20:53:26.276Z,16.62
2019-05-20T20:55:54.552Z,16.58
2019-05-20T20:58:22.850Z,16.70
2019-05-20T21:00:51.158Z,16.70
2019-05-20T21:03:19.454Z,16.74
2019-05-20T21:05:47.761Z,16.68
2019-05-20T21:08:16.058Z,16.73
2019-05-20T21:10:44.338Z,16.65
2019-05-20T21:13:12.628Z,16.68
2019-05-20T21:15:40.901Z,16.68
2019-05-20T21:18:09.205Z,16.73
2019-05-20T21:20:37.499Z,16.75
2019-05-20T21:23:05.805Z,16.70
2019-05-20T21:25:34.080Z,16.80
2019-05-20T21:28:02.378Z,16.80
2019-05-20T21:30:30.657Z,16.82
2019-05-20T21:33:08.720Z,16.77
2019-05-20T21:35:28.969Z,16.86
2019-05-20T21:37:57.250Z,16.88
2019-05-20T21:40:25.537Z,16.78
2019-05-20T21:42:53.817Z,16.81
2019-05-20T21:45:22.138Z,16.78
2019-05-20T21:47:50.400Z,16.74
2019-05-20T21:50:18.709Z,16.72
2019-05-20T21:52:46.992Z,16.75
2019-05-20T21:55:15.278Z,16.69
2019-05-20T21:57:43.552Z,16.71
2019-05-20T22:00:13.553Z,16.70
2019-05-20T22:02:41.830Z,16.76
2019-05-20T22:05:10.461Z,16.79
2019-05-20T22:07:38.799Z,16.82
2019-05-20T22:10:07.484Z,16.85
2019-05-20T22:12:35.783Z,16.79
2019-05-20T22:15:06.191Z,16.80
2019-05-20T22:17:34.478Z,16.75
2019-05-20T22:20:02.833Z,16.78
2019-05-20T22:22:32.753Z,16.71
2019-05-20T22:25:01.145Z,16.75
2019-05-20T22:27:29.381Z,16.72
2019-05-20T22:29:57.675Z,16.66
2019-05-20T22:32:25.982Z,16.56
2019-05-20T22:34:54.252Z,16.54
2019-05-20T22:37:22.572Z,16.61
2019-05-20T22:39:50.849Z,16.65
2019-05-20T22:42:19.152Z,16.51
2019-05-20T22:44:47.428Z,16.59
2019-05-20T22:47:15.732Z,16.65
2019-05-20T22:49:44.035Z,16.62
2019-05-20T22:52:12.312Z,16.69
2019-05-20T22:54:40.619Z,16.72
2019-05-20T22:57:08.938Z,16.80
2019-05-20T22:59:37.203Z,16.79
2019-05-20T23:02:05.497Z,16.70
2019-05-20T23:04:33.776Z,16.72
2019-05-20T23:07:02.068Z,16.72
2019-05-20T23:09:30.335Z,16.74
2019-05-20T23:12:01.346Z,16.74
2019-05-20T23:14:29.635Z,16.83
2019-05-20T23:16:57.937Z,16.81
2019-05-20T23:19:26.211Z,16.85
2019-05-20T23:21:54.510Z,16.78
2019-05-20T23:24:22.816Z,16.90
2019-05-20T23:26:51.161Z,16.88
2019-05-20T23:29:19.469Z,16.91
2019-05-20T23:31:47.748Z,16.82
2019-05-20T23:34:16.116Z,16.83
2019-05-20T23:36:44.407Z,16.86
2019-05-20T23:39:12.724Z,16.87
2019-05-20T23:41:40.997Z,16.88
2019-05-20T23:44:09.284Z,16.83
2019-05-20T23:46:37.655Z,16.71
2019-05-20T23:49:05.928Z,16.75
2019-05-20T23:51:34.225Z,16.78
2019-05-20T23:54:02.487Z,16.72
2019-05-20T23:56:30.799Z,16.76
2019-05-20T23:58:59.072Z,16.72
